createdAt,value
2023-01-07T00:01:40.422Z,26.35
2023-01-07T00:04:12.329Z,29.23
2023-01-07T00:06:43.406Z,27.02
2023-01-07T00:09:18.641Z,26.73
2023-01-07T00:11:46.435Z,30.75
2023-01-07T00:14:14.887Z,32.78
2023-01-07T00:16:43.052Z,31.65
2023-01-07T00:19:15.138Z,29.38
2023-01-07T00:21:43.608Z,29.02
2023-01-07T00:24:12.267Z,31.25
2023-01-07T00:26:41.087Z,29.23
2023-01-07T00:29:09.642Z,27.88
2023-01-07T00:31:40.258Z,30.67
2023-01-07T00:34:09.608Z,33.28
2023-01-07T00:36:42.682Z,32.55
2023-01-07T00:39:19.504Z,36.72
2023-01-07T00:42:08.692Z,33.33
2023-01-07T00:44:38.042Z,35.88
2023-01-07T00:47:05.827Z,37.28
2023-01-07T00:49:33.461Z,29.80
2023-01-07T00:52:01.061Z,23.83
2023-01-07T00:54:28.484Z,24.17
2023-01-07T00:56:56.129Z,22.65
2023-01-07T00:59:23.461Z,24.80
2023-01-07T01:01:51.237Z,22.10
2023-01-07T01:04:18.726Z,23.80
2023-01-07T01:06:46.609Z,25.80
2023-01-07T01:09:14.035Z,23.40
2023-01-07T01:11:42.284Z,32.85
2023-01-07T01:14:11.903Z,31.50
2023-01-07T01:16:39.725Z,30.08
2023-01-07T01:19:07.036Z,27.50
2023-01-07T01:21:34.681Z,23.15
2023-01-07T01:24:01.929Z,21.98
2023-01-07T01:26:29.559Z,22.35
2023-01-07T01:28:57.548Z,24.60
2023-01-07T01:31:25.574Z,22.60
2023-01-07T01:33:57.438Z,27.80
2023-01-07T01:36:25.349Z,26.20
2023-01-07T01:38:52.881Z,28.55
2023-01-07T01:41:20.671Z,32.47
2023-01-07T01:43:48.206Z,24.85
2023-01-07T01:46:28.375Z,27.48
2023-01-07T01:49:26.779Z,26.25
2023-01-07T01:52:08.680Z,26.27
2023-01-07T01:54:36.206Z,25.40
2023-01-07T01:57:09.056Z,27.08
2023-01-07T01:59:42.224Z,32.33
2023-01-07T02:02:10.313Z,34.88
2023-01-07T02:04:38.604Z,30.73
2023-01-07T02:07:15.153Z,32.03
2023-01-07T02:09:42.503Z,33.13
2023-01-07T02:12:16.118Z,27.02
2023-01-07T02:15:17.643Z,29.67
2023-01-07T02:18:17.024Z,28.73
2023-01-07T02:21:09.255Z,26.45
2023-01-07T02:24:30.250Z,25.10
2023-01-07T02:27:42.777Z,24.63
2023-01-07T02:30:19.803Z,23.67
2023-01-07T02:33:20.668Z,21.92
2023-01-07T02:36:32.606Z,25.83
2023-01-07T02:39:07.565Z,22.30
2023-01-07T02:42:08.822Z,23.65
2023-01-07T02:44:52.139Z,18.92
2023-01-07T02:47:34.362Z,15.48
2023-01-07T02:50:02.192Z,20.23
2023-01-07T02:52:33.914Z,19.45
2023-01-07T02:55:17.963Z,21.13
2023-01-07T02:58:15.416Z,18.73
2023-01-07T03:01:22.287Z,17.80
2023-01-07T03:04:32.805Z,20.35
2023-01-07T03:07:56.361Z,19.90
2023-01-07T03:10:39.374Z,19.05
2023-01-07T03:13:22.976Z,21.55
2023-01-07T03:16:05.959Z,20.10
2023-01-07T03:18:44.364Z,23.50
2023-01-07T03:21:18.023Z,25.85
2023-01-07T03:23:52.809Z,25.98
2023-01-07T03:26:27.057Z,25.88
2023-01-07T03:28:58.266Z,28.92
2023-01-07T03:31:28.718Z,31.90
2023-01-07T03:34:12.450Z,28.17
2023-01-07T03:36:49.773Z,28.73
2023-01-07T03:39:19.926Z,28.77
2023-01-07T03:42:09.306Z,27.00
2023-01-07T03:44:37.199Z,24.00
2023-01-07T03:47:06.021Z,24.85
2023-01-07T03:49:36.966Z,28.15
2023-01-07T03:52:04.883Z,30.23
2023-01-07T03:54:32.309Z,30.90
2023-01-07T03:57:00.094Z,33.47
2023-01-07T03:59:27.451Z,29.08
2023-01-07T04:01:55.149Z,33.35
2023-01-07T04:04:22.698Z,30.60
2023-01-07T04:06:50.259Z,30.48
2023-01-07T04:09:22.037Z,41.15
2023-01-07T04:11:49.645Z,38.72
2023-01-07T04:14:17.039Z,38.20
2023-01-07T04:16:44.704Z,36.80
2023-01-07T04:19:12.142Z,38.70
2023-01-07T04:21:39.761Z,37.15
2023-01-07T04:24:07.823Z,41.63
2023-01-07T04:26:35.706Z,38.20
2023-01-07T04:29:03.031Z,47.38
2023-01-07T04:31:30.713Z,39.28
2023-01-07T04:33:58.211Z,41.53
2023-01-07T04:36:26.023Z,40.78
2023-01-07T04:38:53.419Z,37.72
2023-01-07T04:41:21.278Z,34.13
2023-01-07T04:43:48.717Z,34.75
2023-01-07T04:46:16.448Z,45.35
2023-01-07T04:48:43.844Z,37.08
2023-01-07T04:51:11.458Z,37.22
2023-01-07T04:53:38.819Z,42.33
2023-01-07T04:56:06.992Z,42.00
2023-01-07T04:58:34.733Z,38.70
2023-01-07T05:01:07.182Z,40.85
2023-01-07T05:03:34.818Z,43.80
2023-01-07T05:06:03.304Z,46.28
2023-01-07T05:08:30.816Z,42.58
2023-01-07T05:10:58.563Z,42.05
2023-01-07T05:13:25.956Z,42.35
2023-01-07T05:15:53.815Z,39.35
2023-01-07T05:18:21.097Z,39.50
2023-01-07T05:20:48.750Z,37.15
2023-01-07T05:23:16.061Z,37.63
2023-01-07T05:25:43.715Z,42.88
2023-01-07T05:28:12.343Z,35.60
2023-01-07T05:30:40.367Z,36.95
2023-01-07T05:33:08.111Z,39.15
2023-01-07T05:35:36.445Z,37.47
2023-01-07T05:38:04.701Z,35.67
2023-01-07T05:40:32.408Z,38.22
2023-01-07T05:42:59.681Z,34.75
2023-01-07T05:45:27.344Z,33.03
2023-01-07T05:47:54.630Z,32.22
2023-01-07T05:50:22.295Z,35.60
2023-01-07T05:52:52.153Z,32.25
2023-01-07T05:55:19.825Z,34.17
2023-01-07T05:57:47.198Z,39.42
2023-01-07T06:00:15.583Z,36.95
2023-01-07T06:02:43.056Z,30.15
2023-01-07T06:05:11.297Z,34.55
2023-01-07T06:07:39.107Z,32.67
2023-01-07T06:10:07.329Z,33.15
2023-01-07T06:12:34.632Z,29.48
2023-01-07T06:15:02.418Z,31.85
2023-01-07T06:17:29.816Z,29.25
2023-01-07T06:19:57.474Z,32.50
2023-01-07T06:22:24.817Z,28.90
2023-01-07T06:24:52.490Z,30.83
2023-01-07T06:27:19.813Z,28.52
2023-01-07T06:29:47.441Z,30.85
2023-01-07T06:32:14.738Z,35.03
2023-01-07T06:34:42.325Z,30.40
2023-01-07T06:37:10.403Z,32.35
2023-01-07T06:39:37.972Z,30.15
2023-01-07T06:42:05.521Z,27.13
2023-01-07T06:44:33.220Z,36.22
2023-01-07T06:47:00.653Z,38.53
2023-01-07T06:49:28.304Z,40.65
2023-01-07T06:51:55.611Z,46.05
2023-01-07T06:54:23.241Z,49.33
2023-01-07T06:56:50.513Z,45.70
2023-01-07T06:59:18.120Z,52.53
2023-01-07T07:01:46.686Z,49.90
2023-01-07T07:04:14.491Z,49.58
2023-01-07T07:06:41.777Z,49.35
2023-01-07T07:09:09.516Z,43.28
2023-01-07T07:11:36.954Z,49.30
2023-01-07T07:14:06.442Z,49.13
2023-01-07T07:16:35.974Z,45.33
2023-01-07T07:19:03.643Z,43.70
2023-01-07T07:21:31.057Z,47.05
2023-01-07T07:24:00.642Z,50.38
2023-01-07T07:26:27.955Z,53.88
2023-01-07T07:28:55.557Z,41.95
2023-01-07T07:31:23.026Z,42.88
2023-01-07T07:33:50.757Z,40.65
2023-01-07T07:36:18.092Z,43.03
2023-01-07T07:38:45.715Z,43.30
2023-01-07T07:41:13.408Z,42.80
2023-01-07T07:43:41.131Z,48.03
2023-01-07T07:46:08.794Z,39.40
2023-01-07T07:48:36.494Z,41.03
2023-01-07T07:51:04.089Z,39.80
2023-01-07T07:53:32.524Z,44.47
2023-01-07T07:56:00.055Z,39.10
2023-01-07T07:58:27.885Z,48.65
2023-01-07T08:00:55.391Z,43.50
2023-01-07T08:03:24.070Z,49.03
2023-01-07T08:05:51.631Z,45.92
2023-01-07T08:08:19.336Z,49.45
2023-01-07T08:10:46.792Z,49.50
2023-01-07T08:13:14.509Z,41.17
2023-01-07T08:15:41.820Z,47.78
2023-01-07T08:18:10.561Z,43.53
2023-01-07T08:20:39.116Z,41.47
2023-01-07T08:23:09.199Z,38.42
2023-01-07T08:25:36.813Z,37.33
2023-01-07T08:28:05.063Z,39.13
2023-01-07T08:30:32.816Z,36.67
2023-01-07T08:33:03.469Z,37.35
2023-01-07T08:35:30.845Z,39.25
2023-01-07T08:38:08.021Z,39.35
2023-01-07T08:40:37.537Z,40.05
2023-01-07T08:43:08.580Z,36.80
2023-01-07T08:45:36.657Z,43.78
2023-01-07T08:48:05.315Z,40.58
2023-01-07T08:50:34.282Z,40.20
2023-01-07T08:53:01.985Z,39.33
2023-01-07T08:55:29.350Z,38.28
2023-01-07T08:57:57.256Z,35.15
2023-01-07T09:00:25.646Z,35.47
2023-01-07T09:02:53.329Z,32.35
2023-01-07T09:05:20.780Z,31.02
2023-01-07T09:07:53.510Z,35.05
2023-01-07T09:10:21.530Z,31.92
2023-01-07T09:12:50.057Z,30.05
2023-01-07T09:15:17.889Z,29.25
2023-01-07T09:17:45.902Z,29.83
2023-01-07T09:20:13.750Z,26.65
2023-01-07T09:22:41.454Z,29.08
2023-01-07T09:25:09.864Z,26.98
2023-01-07T09:27:38.585Z,21.48
2023-01-07T09:30:08.138Z,23.20
2023-01-07T09:32:35.876Z,23.58
2023-01-07T09:35:04.403Z,24.60
2023-01-07T09:37:32.427Z,24.00
2023-01-07T09:40:01.303Z,18.67
2023-01-07T09:42:37.688Z,19.90
2023-01-07T09:45:27.467Z,17.45
2023-01-07T09:48:01.298Z,15.27
2023-01-07T09:50:39.636Z,12.00
2023-01-07T09:53:21.060Z,13.50
2023-01-07T09:56:11.294Z,12.27
2023-01-07T09:58:44.594Z,14.43
2023-01-07T10:01:29.214Z,12.63
2023-01-07T10:03:59.933Z,14.93
2023-01-07T10:07:11.024Z,11.70
2023-01-07T10:10:05.698Z,12.75
2023-01-07T10:13:00.587Z,11.65
2023-01-07T10:16:15.870Z,11.55
2023-01-07T10:19:12.454Z,14.30
2023-01-07T10:22:16.487Z,14.45
2023-01-07T10:24:53.036Z,16.50
2023-01-07T10:27:35.673Z,14.15
2023-01-07T10:30:12.159Z,16.13
2023-01-07T10:32:40.389Z,15.90
2023-01-07T10:35:19.265Z,14.68
2023-01-07T10:37:47.428Z,15.52
2023-01-07T10:40:39.065Z,13.65
2023-01-07T10:43:43.726Z,14.32
2023-01-07T10:46:35.561Z,11.60
2023-01-07T10:49:45.152Z,8.98
2023-01-07T10:52:38.519Z,8.65
2023-01-07T10:55:29.446Z,8.27
2023-01-07T10:57:57.085Z,7.85
2023-01-07T11:00:26.175Z,7.68
2023-01-07T11:02:58.842Z,8.75
2023-01-07T11:05:37.530Z,7.25
2023-01-07T11:08:22.807Z,6.60
2023-01-07T11:10:51.147Z,8.93
2023-01-07T11:13:33.223Z,7.93
2023-01-07T11:16:17.887Z,8.48
2023-01-07T11:19:09.786Z,8.82
2023-01-07T11:21:48.812Z,8.55
2023-01-07T11:24:35.872Z,8.20
2023-01-07T11:27:19.095Z,7.05
2023-01-07T11:30:10.936Z,7.15
2023-01-07T11:32:41.002Z,6.60
2023-01-07T11:35:23.845Z,8.85
2023-01-07T11:37:51.836Z,7.72
2023-01-07T11:40:28.367Z,8.23
2023-01-07T11:42:58.621Z,7.97
2023-01-07T11:45:35.493Z,8.63
2023-01-07T11:48:09.986Z,5.53
2023-01-07T11:50:59.624Z,10.30
2023-01-07T11:53:49.989Z,7.55
2023-01-07T11:56:20.193Z,7.47
2023-01-07T11:58:51.833Z,7.43
2023-01-07T12:01:24.373Z,8.15
2023-01-07T12:03:52.180Z,6.20
2023-01-07T12:06:20.495Z,6.97
2023-01-07T12:09:25.876Z,6.43
2023-01-07T12:11:57.918Z,7.05
2023-01-07T12:14:28.631Z,6.43
2023-01-07T12:17:10.187Z,5.53
2023-01-07T12:19:51.731Z,7.03
2023-01-07T12:23:09.339Z,5.38
2023-01-07T12:26:01.301Z,5.80
2023-01-07T12:29:07.515Z,5.78
2023-01-07T12:32:15.671Z,5.78
2023-01-07T12:35:14.999Z,6.00
2023-01-07T12:38:34.166Z,5.43
2023-01-07T12:41:11.811Z,5.35
2023-01-07T12:44:03.062Z,6.38
2023-01-07T12:46:43.697Z,7.35
2023-01-07T12:49:21.852Z,6.45
2023-01-07T12:52:27.645Z,5.68
2023-01-07T12:55:04.635Z,6.03
2023-01-07T12:57:38.967Z,5.53
2023-01-07T13:00:32.008Z,6.10
2023-01-07T13:03:19.132Z,7.57
2023-01-07T13:06:00.051Z,6.97
2023-01-07T13:08:54.816Z,8.70
2023-01-07T13:11:52.700Z,8.00
2023-01-07T13:14:32.171Z,7.18
2023-01-07T13:17:21.487Z,6.45
2023-01-07T13:19:48.872Z,6.38
2023-01-07T13:22:56.600Z,6.35
2023-01-07T13:25:53.138Z,7.28
2023-01-07T13:29:05.243Z,5.72
2023-01-07T13:32:23.157Z,8.23
2023-01-07T13:35:05.381Z,5.93
2023-01-07T13:37:55.195Z,6.07
2023-01-07T13:41:02.800Z,5.75
2023-01-07T13:44:18.185Z,5.57
2023-01-07T13:46:47.953Z,4.88
2023-01-07T13:49:30.076Z,4.40
2023-01-07T13:52:22.095Z,4.55
2023-01-07T13:54:49.524Z,6.40
2023-01-07T13:57:39.579Z,5.18
2023-01-07T14:00:45.724Z,5.32
2023-01-07T14:03:28.422Z,6.70
2023-01-07T14:06:20.786Z,6.68
2023-01-07T14:09:05.688Z,6.93
2023-01-07T14:11:33.058Z,8.38
2023-01-07T14:14:38.656Z,9.05
2023-01-07T14:17:33.180Z,9.77
2023-01-07T14:20:25.797Z,12.15
2023-01-07T14:23:31.809Z,11.45
2023-01-07T14:26:22.861Z,9.52
2023-01-07T14:29:19.626Z,12.38
2023-01-07T14:31:47.671Z,11.07
2023-01-07T14:34:26.869Z,9.50
2023-01-07T14:37:05.099Z,9.18
2023-01-07T14:39:37.961Z,9.90
2023-01-07T14:42:21.066Z,9.43
2023-01-07T14:44:50.932Z,9.65
2023-01-07T14:47:43.561Z,9.93
2023-01-07T14:50:47.237Z,9.90
2023-01-07T14:53:51.129Z,11.48
2023-01-07T14:56:43.807Z,16.60
2023-01-07T14:59:46.246Z,18.27
2023-01-07T15:02:59.217Z,17.98
2023-01-07T15:05:26.914Z,25.52
2023-01-07T15:08:23.189Z,26.67
2023-01-07T15:11:14.107Z,27.55
2023-01-07T15:14:10.441Z,27.30
2023-01-07T15:16:39.277Z,26.98
2023-01-07T15:19:09.657Z,20.50
2023-01-07T15:21:51.992Z,17.90
2023-01-07T15:24:37.704Z,21.30
2023-01-07T15:27:33.681Z,20.50
2023-01-07T15:30:21.075Z,17.92
2023-01-07T15:33:02.958Z,16.40
2023-01-07T15:35:44.955Z,16.25
2023-01-07T15:38:35.042Z,16.05
2023-01-07T15:41:02.885Z,20.48
2023-01-07T15:43:31.891Z,23.67
2023-01-07T15:46:06.413Z,20.67
2023-01-07T15:48:34.394Z,21.52
2023-01-07T15:51:01.778Z,19.92
2023-01-07T15:53:30.547Z,23.30
2023-01-07T15:56:15.006Z,18.52
2023-01-07T15:58:51.180Z,21.88
2023-01-07T16:01:23.388Z,20.33
2023-01-07T16:03:56.815Z,16.92
2023-01-07T16:06:34.965Z,19.83
2023-01-07T16:09:18.647Z,20.25
2023-01-07T16:11:46.249Z,18.13
2023-01-07T16:14:26.801Z,21.02
2023-01-07T16:17:27.437Z,20.02
2023-01-07T16:20:29.828Z,13.48
2023-01-07T16:23:24.283Z,13.40
2023-01-07T16:26:13.358Z,14.75
2023-01-07T16:28:49.831Z,14.93
2023-01-07T16:31:22.783Z,15.18
2023-01-07T16:33:55.916Z,17.67
2023-01-07T16:36:30.979Z,19.42
2023-01-07T16:39:07.728Z,22.48
2023-01-07T16:41:35.632Z,25.52
2023-01-07T16:44:03.411Z,25.88
2023-01-07T16:46:43.009Z,25.48
2023-01-07T16:49:22.370Z,27.30
2023-01-07T16:52:14.195Z,27.02
2023-01-07T16:54:44.767Z,30.58
2023-01-07T16:57:12.395Z,31.83
2023-01-07T16:59:53.695Z,36.88
2023-01-07T17:02:53.876Z,37.58
2023-01-07T17:05:28.324Z,40.00
2023-01-07T17:08:07.068Z,41.38
2023-01-07T17:10:38.833Z,38.25
2023-01-07T17:13:15.818Z,36.92
2023-01-07T17:15:44.168Z,35.78
2023-01-07T17:18:11.723Z,32.30
2023-01-07T17:20:49.086Z,32.85
2023-01-07T17:23:28.535Z,37.97
2023-01-07T17:26:02.861Z,31.60
2023-01-07T17:28:45.862Z,34.08
2023-01-07T17:31:13.337Z,39.08
2023-01-07T17:33:42.580Z,32.83
2023-01-07T17:36:25.335Z,36.40
2023-01-07T17:38:53.857Z,36.33
2023-01-07T17:41:42.005Z,36.22
2023-01-07T17:44:13.003Z,40.67
2023-01-07T17:46:41.592Z,37.75
2023-01-07T17:49:11.631Z,35.63
2023-01-07T17:51:48.650Z,43.47
2023-01-07T17:54:24.220Z,35.88
2023-01-07T17:56:52.642Z,44.17
2023-01-07T17:59:23.483Z,50.90
2023-01-07T18:01:55.161Z,51.35
2023-01-07T18:04:23.268Z,49.08
2023-01-07T18:06:50.588Z,49.00
2023-01-07T18:09:18.187Z,44.25
2023-01-07T18:12:05.658Z,49.75
2023-01-07T18:14:33.432Z,52.58
2023-01-07T18:17:00.879Z,51.45
2023-01-07T18:19:28.595Z,54.03
2023-01-07T18:21:55.986Z,55.08
2023-01-07T18:24:23.726Z,53.08
2023-01-07T18:26:51.138Z,43.38
2023-01-07T18:29:18.776Z,44.92
2023-01-07T18:31:46.528Z,54.30
2023-01-07T18:34:15.985Z,55.70
2023-01-07T18:36:43.727Z,63.28
2023-01-07T18:39:19.408Z,48.65
2023-01-07T18:41:50.709Z,56.15
2023-01-07T18:44:19.904Z,61.25
2023-01-07T18:46:47.531Z,54.50
2023-01-07T18:49:15.605Z,45.53
2023-01-07T18:51:44.984Z,62.88
2023-01-07T18:54:12.680Z,72.03
2023-01-07T18:56:40.799Z,60.30
2023-01-07T18:59:08.585Z,65.28
2023-01-07T19:01:35.980Z,74.00
2023-01-07T19:04:05.214Z,68.93
2023-01-07T19:06:33.217Z,76.85
2023-01-07T19:09:00.984Z,81.78
2023-01-07T19:11:28.443Z,80.97
2023-01-07T19:13:56.219Z,80.28
2023-01-07T19:16:23.762Z,75.28
2023-01-07T19:18:53.216Z,79.72
2023-01-07T19:21:21.548Z,76.72
2023-01-07T19:23:49.373Z,77.43
2023-01-07T19:26:16.979Z,75.13
2023-01-07T19:28:44.821Z,75.07
2023-01-07T19:31:12.685Z,68.93
2023-01-07T19:33:40.831Z,73.40
2023-01-07T19:36:12.514Z,84.90
2023-01-07T19:38:43.589Z,79.20
2023-01-07T19:41:15.071Z,84.30
2023-01-07T19:43:43.497Z,79.45
2023-01-07T19:46:13.103Z,84.53
2023-01-07T19:48:41.627Z,88.50
2023-01-07T19:51:10.656Z,83.55
2023-01-07T19:53:39.644Z,81.85
2023-01-07T19:56:12.729Z,89.32
2023-01-07T19:58:42.139Z,92.65
2023-01-07T20:01:14.615Z,92.28
2023-01-07T20:03:43.701Z,83.82
2023-01-07T20:06:24.990Z,99.20
2023-01-07T20:08:55.222Z,93.88
2023-01-07T20:11:24.118Z,88.70
2023-01-07T20:13:51.858Z,95.65
2023-01-07T20:16:23.985Z,91.60
2023-01-07T20:18:54.961Z,88.88
2023-01-07T20:21:26.367Z,91.60
2023-01-07T20:23:54.689Z,91.93
2023-01-07T20:26:26.365Z,85.50
2023-01-07T20:28:55.488Z,88.78
2023-01-07T20:31:25.332Z,83.68
2023-01-07T20:33:55.920Z,84.38
2023-01-07T20:36:27.720Z,83.00
2023-01-07T20:38:56.916Z,88.32
2023-01-07T20:41:27.507Z,77.25
2023-01-07T20:44:01.813Z,83.53
2023-01-07T20:46:30.818Z,75.85
2023-01-07T20:48:59.244Z,76.05
2023-01-07T20:51:27.588Z,74.93
2023-01-07T20:53:55.484Z,68.20
2023-01-07T20:56:24.734Z,74.13
2023-01-07T20:58:52.782Z,72.20
2023-01-07T21:01:21.908Z,65.65
2023-01-07T21:03:50.078Z,73.88
2023-01-07T21:06:19.761Z,68.90
2023-01-07T21:08:49.570Z,72.95
2023-01-07T21:11:20.801Z,67.93
2023-01-07T21:13:50.401Z,66.65
2023-01-07T21:16:19.011Z,59.97
2023-01-07T21:18:47.211Z,62.80
2023-01-07T21:21:23.729Z,63.13
2023-01-07T21:23:53.524Z,64.15
2023-01-07T21:26:22.217Z,56.17
2023-01-07T21:28:56.072Z,54.50
2023-01-07T21:31:25.661Z,60.88
2023-01-07T21:33:58.351Z,63.55
2023-01-07T21:36:28.125Z,61.05
2023-01-07T21:38:58.936Z,60.90
2023-01-07T21:41:28.376Z,63.33
2023-01-07T21:43:56.584Z,57.47
2023-01-07T21:46:24.398Z,57.20
2023-01-07T21:48:52.159Z,57.60
2023-01-07T21:51:27.981Z,54.50
2023-01-07T21:53:58.043Z,50.88
2023-01-07T21:56:30.614Z,50.20
2023-01-07T21:58:59.326Z,48.85
2023-01-07T22:01:28.818Z,52.67
2023-01-07T22:03:59.060Z,49.92
2023-01-07T22:06:32.972Z,50.83
2023-01-07T22:09:06.778Z,50.65
2023-01-07T22:11:38.736Z,50.38
2023-01-07T22:14:06.496Z,47.83
2023-01-07T22:16:34.412Z,49.28
2023-01-07T22:19:02.148Z,50.88
2023-01-07T22:21:30.994Z,47.05
2023-01-07T22:23:58.985Z,51.95
2023-01-07T22:26:26.402Z,46.45
2023-01-07T22:28:59.478Z,41.58
2023-01-07T22:31:32.292Z,46.70
2023-01-07T22:34:00.370Z,42.83
2023-01-07T22:36:34.969Z,38.53
2023-01-07T22:39:10.455Z,40.53
2023-01-07T22:41:38.059Z,43.30
2023-01-07T22:44:16.786Z,41.25
2023-01-07T22:46:48.155Z,46.67
2023-01-07T22:49:17.171Z,45.63
2023-01-07T22:51:49.136Z,44.53
2023-01-07T22:54:17.701Z,45.30
2023-01-07T22:56:45.971Z,48.80
2023-01-07T22:59:13.686Z,49.55
2023-01-07T23:01:41.159Z,49.75
2023-01-07T23:04:09.431Z,50.58
2023-01-07T23:06:36.902Z,49.38
2023-01-07T23:09:05.130Z,46.75
2023-01-07T23:11:48.328Z,42.63
2023-01-07T23:14:21.740Z,49.28
2023-01-07T23:16:51.092Z,43.85
2023-01-07T23:19:21.202Z,42.65
2023-01-07T23:21:54.120Z,43.65
2023-01-07T23:24:23.644Z,46.30
2023-01-07T23:26:54.113Z,43.08
2023-01-07T23:29:22.348Z,44.88
2023-01-07T23:31:50.582Z,42.67
2023-01-07T23:34:19.443Z,41.45
2023-01-07T23:36:46.802Z,41.75
2023-01-07T23:39:14.482Z,43.42
2023-01-07T23:41:41.817Z,41.83
2023-01-07T23:44:09.612Z,43.67
2023-01-07T23:46:37.137Z,47.47
2023-01-07T23:49:04.996Z,46.03
2023-01-07T23:51:32.351Z,45.63
2023-01-07T23:54:00.015Z,50.47
2023-01-07T23:56:27.433Z,49.83
2023-01-07T23:58:55.115Z,46.55
